createdAt,value
2023-03-17T00:00:44.486Z,5.77
2023-03-17T00:02:49.107Z,4.33
2023-03-17T00:04:52.389Z,3.30
2023-03-17T00:06:56.709Z,6.00
2023-03-17T00:09:01.306Z,5.00
2023-03-17T00:11:04.369Z,4.93
2023-03-17T00:13:07.947Z,4.37
2023-03-17T00:15:11.909Z,6.30
2023-03-17T00:17:15.361Z,5.77
2023-03-17T00:19:18.929Z,5.30
2023-03-17T00:21:26.633Z,6.67
2023-03-17T00:23:29.898Z,3.63
2023-03-17T00:25:35.472Z,4.27
2023-03-17T00:27:38.324Z,5.27
2023-03-17T00:29:41.728Z,4.30
2023-03-17T00:31:45.851Z,6.23
2023-03-17T00:33:49.776Z,4.53
2023-03-17T00:35:52.846Z,4.03
2023-03-17T00:37:57.442Z,3.30
2023-03-17T00:40:00.585Z,5.73
2023-03-17T00:42:05.219Z,3.70
2023-03-17T00:44:07.947Z,5.17
2023-03-17T00:46:14.657Z,4.43
2023-03-17T00:48:20.660Z,4.37
2023-03-17T00:50:25.320Z,6.43
2023-03-17T00:52:28.495Z,5.10
2023-03-17T00:54:31.333Z,6.03
2023-03-17T00:56:34.164Z,5.33
2023-03-17T00:58:38.353Z,4.97
2023-03-17T01:00:41.143Z,4.13
2023-03-17T01:02:44.737Z,3.43
2023-03-17T01:04:52.835Z,5.07
2023-03-17T01:07:02.461Z,4.50
2023-03-17T01:09:05.941Z,5.50
2023-03-17T01:11:14.705Z,4.43
2023-03-17T01:13:17.439Z,4.73
2023-03-17T01:15:23.035Z,6.47
2023-03-17T01:17:25.751Z,5.27
2023-03-17T01:19:28.534Z,4.77
2023-03-17T01:21:31.297Z,7.10
2023-03-17T01:23:34.065Z,6.17
2023-03-17T01:25:37.438Z,5.03
2023-03-17T01:27:41.665Z,4.97
2023-03-17T01:29:44.899Z,6.13
2023-03-17T01:31:48.988Z,4.90
2023-03-17T01:33:52.816Z,6.77
2023-03-17T01:35:55.695Z,6.37
2023-03-17T01:37:59.124Z,5.63
2023-03-17T01:40:01.926Z,5.17
2023-03-17T01:42:05.807Z,6.13
2023-03-17T01:44:14.425Z,6.27
2023-03-17T01:46:27.446Z,7.33
2023-03-17T01:48:35.287Z,9.43
2023-03-17T01:50:38.113Z,6.20
2023-03-17T01:52:41.485Z,5.53
2023-03-17T01:54:48.128Z,8.83
2023-03-17T01:56:53.006Z,7.00
2023-03-17T01:58:57.654Z,6.40
2023-03-17T02:01:01.358Z,6.10
2023-03-17T02:03:06.093Z,6.20
2023-03-17T02:05:12.514Z,5.60
2023-03-17T02:07:15.390Z,6.07
2023-03-17T02:09:18.600Z,5.50
2023-03-17T02:11:22.524Z,8.00
2023-03-17T02:13:25.568Z,5.40
2023-03-17T02:15:38.898Z,5.33
2023-03-17T02:17:41.678Z,4.83
2023-03-17T02:19:44.506Z,5.80
2023-03-17T02:21:51.933Z,7.27
2023-03-17T02:23:54.851Z,6.83
2023-03-17T02:25:57.594Z,8.80
2023-03-17T02:28:08.279Z,9.13
2023-03-17T02:30:14.359Z,7.87
2023-03-17T02:32:19.372Z,5.97
2023-03-17T02:34:22.338Z,4.97
2023-03-17T02:36:25.462Z,6.13
2023-03-17T02:38:29.553Z,5.70
2023-03-17T02:40:32.568Z,6.83
2023-03-17T02:42:35.690Z,6.27
2023-03-17T02:44:38.476Z,5.97
2023-03-17T02:46:41.475Z,5.70
2023-03-17T02:48:44.704Z,5.13
2023-03-17T02:50:47.555Z,5.80
2023-03-17T02:52:50.464Z,5.67
2023-03-17T02:54:54.770Z,6.17
2023-03-17T02:56:57.518Z,5.23
2023-03-17T02:59:00.245Z,5.33
2023-03-17T03:01:03.576Z,5.70
2023-03-17T03:03:06.322Z,6.33
2023-03-17T03:05:10.777Z,7.67
2023-03-17T03:07:13.572Z,5.63
2023-03-17T03:09:17.775Z,8.60
2023-03-17T03:11:21.918Z,6.57
2023-03-17T03:13:24.782Z,6.57
2023-03-17T03:15:27.561Z,5.73
2023-03-17T03:17:30.275Z,6.60
2023-03-17T03:19:33.060Z,5.53
2023-03-17T03:21:36.644Z,6.30
2023-03-17T03:23:39.377Z,5.57
2023-03-17T03:25:42.721Z,5.37
2023-03-17T03:27:46.788Z,6.77
2023-03-17T03:29:49.539Z,5.67
2023-03-17T03:31:52.417Z,4.97
2023-03-17T03:33:55.458Z,6.63
2023-03-17T03:35:59.396Z,4.23
2023-03-17T03:38:02.599Z,5.07
2023-03-17T03:40:07.383Z,5.83
2023-03-17T03:42:10.798Z,5.77
2023-03-17T03:44:14.916Z,5.53
2023-03-17T03:46:17.745Z,6.27
2023-03-17T03:48:20.537Z,4.87
2023-03-17T03:50:23.799Z,4.77
2023-03-17T03:52:26.491Z,4.13
2023-03-17T03:54:29.264Z,5.47
2023-03-17T03:56:31.963Z,4.57
2023-03-17T03:58:34.816Z,4.70
2023-03-17T04:00:39.023Z,4.40
2023-03-17T04:02:44.998Z,5.53
2023-03-17T04:04:48.160Z,5.83
2023-03-17T04:06:50.988Z,6.30
2023-03-17T04:08:53.756Z,5.37
2023-03-17T04:10:56.835Z,7.90
2023-03-17T04:12:59.656Z,6.80
2023-03-17T04:15:02.432Z,4.67
2023-03-17T04:17:06.586Z,4.73
2023-03-17T04:19:09.775Z,6.07
2023-03-17T04:21:13.605Z,6.37
2023-03-17T04:23:16.382Z,4.47
2023-03-17T04:25:19.256Z,5.70
2023-03-17T04:27:22.024Z,5.37
2023-03-17T04:29:24.876Z,4.63
2023-03-17T04:31:27.678Z,3.60
2023-03-17T04:33:31.816Z,4.87
2023-03-17T04:35:34.674Z,4.27
2023-03-17T04:37:38.889Z,5.20
2023-03-17T04:39:42.077Z,4.40
2023-03-17T04:41:45.152Z,5.63
2023-03-17T04:43:48.271Z,6.60
2023-03-17T04:45:51.173Z,7.07
2023-03-17T04:47:53.934Z,5.13
2023-03-17T04:49:58.036Z,5.23
2023-03-17T04:52:01.433Z,7.53
2023-03-17T04:54:04.834Z,5.33
2023-03-17T04:56:08.250Z,8.83
2023-03-17T04:58:15.518Z,15.27
2023-03-17T05:00:24.199Z,7.83
2023-03-17T05:02:27.269Z,14.97
2023-03-17T05:04:31.935Z,13.70
2023-03-17T05:06:37.304Z,23.80
2023-03-17T05:08:40.287Z,8.30
2023-03-17T05:10:43.010Z,6.97
2023-03-17T05:12:45.848Z,6.87
2023-03-17T05:14:48.598Z,5.90
2023-03-17T05:16:51.971Z,7.87
2023-03-17T05:18:55.156Z,9.97
2023-03-17T05:20:58.105Z,7.57
2023-03-17T05:23:02.236Z,8.43
2023-03-17T05:25:06.715Z,6.50
2023-03-17T05:27:09.811Z,11.73
2023-03-17T05:29:12.607Z,12.27
2023-03-17T05:31:15.433Z,6.53
2023-03-17T05:33:18.597Z,7.57
2023-03-17T05:35:21.396Z,5.70
2023-03-17T05:37:24.338Z,4.97
2023-03-17T05:39:28.652Z,7.47
2023-03-17T05:41:31.582Z,8.20
2023-03-17T05:43:34.505Z,6.37
2023-03-17T05:45:37.674Z,7.60
2023-03-17T05:47:40.445Z,11.87
2023-03-17T05:49:43.263Z,9.53
2023-03-17T05:51:46.397Z,6.10
2023-03-17T05:53:49.279Z,7.37
2023-03-17T05:55:53.375Z,6.33
2023-03-17T05:57:56.123Z,6.17
2023-03-17T05:59:59.051Z,8.67
2023-03-17T06:02:01.984Z,5.70
2023-03-17T06:04:04.779Z,10.57
2023-03-17T06:06:09.255Z,5.40
2023-03-17T06:08:12.998Z,6.50
2023-03-17T06:10:15.878Z,6.30
2023-03-17T06:12:19.948Z,6.23
2023-03-17T06:14:22.681Z,6.63
2023-03-17T06:16:25.621Z,8.03
2023-03-17T06:18:28.357Z,7.10
2023-03-17T06:20:31.259Z,7.97
2023-03-17T06:22:33.986Z,7.87
2023-03-17T06:24:36.987Z,10.47
2023-03-17T06:26:39.806Z,8.10
2023-03-17T06:28:44.041Z,9.27
2023-03-17T06:30:46.916Z,10.33
2023-03-17T06:32:50.196Z,10.63
2023-03-17T06:34:53.801Z,9.27
2023-03-17T06:36:56.568Z,9.77
2023-03-17T06:38:59.617Z,7.43
2023-03-17T06:41:03.373Z,8.13
2023-03-17T06:43:06.191Z,7.27
2023-03-17T06:45:12.026Z,8.07
2023-03-17T06:47:14.809Z,9.37
2023-03-17T06:49:17.515Z,7.80
2023-03-17T06:51:20.236Z,9.07
2023-03-17T06:53:23.005Z,9.37
2023-03-17T06:55:25.812Z,9.93
2023-03-17T06:57:28.742Z,7.47
2023-03-17T06:59:32.216Z,8.93
2023-03-17T07:01:37.751Z,9.63
2023-03-17T07:03:40.493Z,9.00
2023-03-17T07:05:43.664Z,6.93
2023-03-17T07:07:46.972Z,7.07
2023-03-17T07:09:49.762Z,7.93
2023-03-17T07:11:52.503Z,8.67
2023-03-17T07:13:55.332Z,9.93
2023-03-17T07:16:00.481Z,9.60
2023-03-17T07:18:06.442Z,6.17
2023-03-17T07:20:10.803Z,9.07
2023-03-17T07:22:13.708Z,7.77
2023-03-17T07:24:16.498Z,6.87
2023-03-17T07:26:19.288Z,8.97
2023-03-17T07:28:22.102Z,6.53
2023-03-17T07:30:24.900Z,6.20
2023-03-17T07:32:28.048Z,15.23
2023-03-17T07:34:32.434Z,20.97
2023-03-17T07:36:35.909Z,9.70
2023-03-17T07:38:38.865Z,21.37
2023-03-17T07:40:42.101Z,8.80
2023-03-17T07:42:45.396Z,12.27
2023-03-17T07:44:48.181Z,8.20
2023-03-17T07:46:51.508Z,4.70
2023-03-17T07:48:54.298Z,6.87
2023-03-17T07:50:58.346Z,4.30
2023-03-17T07:53:01.558Z,8.20
2023-03-17T07:55:04.534Z,10.90
2023-03-17T07:57:07.536Z,4.43
2023-03-17T07:59:10.812Z,6.77
2023-03-17T08:01:13.844Z,5.10
2023-03-17T08:03:16.868Z,6.23
2023-03-17T08:05:19.893Z,6.83
2023-03-17T08:07:24.075Z,8.87
2023-03-17T08:09:27.048Z,7.40
2023-03-17T08:11:29.856Z,7.40
2023-03-17T08:13:32.971Z,9.33
2023-03-17T08:15:36.351Z,6.93
2023-03-17T08:17:40.102Z,8.10
2023-03-17T08:19:43.126Z,10.10
2023-03-17T08:21:45.979Z,8.43
2023-03-17T08:23:50.325Z,8.80
2023-03-17T08:25:57.867Z,10.40
2023-03-17T08:28:00.690Z,4.37
2023-03-17T08:30:04.273Z,3.90
2023-03-17T08:32:07.981Z,4.33
2023-03-17T08:34:10.769Z,3.97
2023-03-17T08:36:13.610Z,6.03
2023-03-17T08:38:16.383Z,4.87
2023-03-17T08:40:21.092Z,4.00
2023-03-17T08:42:23.826Z,4.87
2023-03-17T08:44:27.345Z,5.00
2023-03-17T08:46:32.023Z,6.70
2023-03-17T08:48:36.420Z,4.00
2023-03-17T08:50:39.371Z,6.07
2023-03-17T08:52:42.376Z,3.50
2023-03-17T08:54:45.120Z,5.73
2023-03-17T08:56:49.160Z,3.80
2023-03-17T08:58:51.990Z,6.50
2023-03-17T09:00:55.099Z,4.73
2023-03-17T09:02:58.057Z,3.57
2023-03-17T09:05:01.241Z,4.50
2023-03-17T09:07:04.594Z,4.17
2023-03-17T09:09:07.601Z,6.10
2023-03-17T09:11:11.864Z,5.57
2023-03-17T09:13:16.496Z,8.90
2023-03-17T09:15:19.629Z,5.10
2023-03-17T09:17:22.734Z,6.97
2023-03-17T09:19:25.679Z,5.80
2023-03-17T09:21:28.671Z,6.53
2023-03-17T09:23:31.531Z,3.90
2023-03-17T09:25:35.831Z,8.10
2023-03-17T09:27:38.573Z,5.57
2023-03-17T09:29:43.037Z,6.10
2023-03-17T09:31:47.057Z,3.93
2023-03-17T09:33:49.746Z,2.97
2023-03-17T09:35:53.160Z,4.93
2023-03-17T09:37:56.568Z,3.67
2023-03-17T09:39:59.290Z,3.03
2023-03-17T09:42:10.025Z,3.57
2023-03-17T09:44:20.880Z,3.37
2023-03-17T09:46:42.413Z,2.90
2023-03-17T09:49:03.673Z,2.33
2023-03-17T09:51:09.060Z,4.90
2023-03-17T09:53:19.133Z,2.00
2023-03-17T09:55:27.717Z,6.40
2023-03-17T09:57:33.359Z,5.47
2023-03-17T09:59:39.819Z,3.20
2023-03-17T10:01:44.724Z,6.07
2023-03-17T10:03:48.130Z,2.63
2023-03-17T10:05:50.882Z,2.87
2023-03-17T10:08:02.557Z,4.10
2023-03-17T10:10:12.924Z,3.10
2023-03-17T10:12:28.906Z,1.63
2023-03-17T10:14:55.532Z,3.90
2023-03-17T10:17:04.777Z,2.30
2023-03-17T10:19:16.786Z,3.00
2023-03-17T10:21:24.284Z,2.50
2023-03-17T10:23:29.827Z,2.10
2023-03-17T10:25:34.903Z,3.97
2023-03-17T10:27:39.254Z,3.53
2023-03-17T10:29:42.161Z,3.23
2023-03-17T10:31:45.387Z,3.07
2023-03-17T10:33:52.367Z,4.50
2023-03-17T10:35:55.170Z,5.23
2023-03-17T10:38:13.587Z,2.23
2023-03-17T10:40:25.168Z,2.60
2023-03-17T10:42:29.754Z,4.53
2023-03-17T10:44:43.144Z,4.33
2023-03-17T10:46:55.380Z,2.53
2023-03-17T10:49:07.969Z,3.00
2023-03-17T10:51:11.669Z,2.10
2023-03-17T10:53:27.809Z,2.57
2023-03-17T10:55:33.852Z,3.63
2023-03-17T10:57:39.163Z,4.07
2023-03-17T10:59:44.851Z,4.17
2023-03-17T11:01:52.270Z,1.97
2023-03-17T11:03:55.342Z,2.97
2023-03-17T11:06:04.087Z,2.83
2023-03-17T11:08:17.807Z,3.03
2023-03-17T11:10:23.244Z,3.07
2023-03-17T11:12:28.531Z,4.57
2023-03-17T11:14:31.305Z,5.80
2023-03-17T11:16:38.097Z,2.70
2023-03-17T11:18:41.815Z,3.13
2023-03-17T11:20:51.661Z,3.67
2023-03-17T11:23:03.570Z,3.30
2023-03-17T11:25:12.712Z,5.27
2023-03-17T11:27:25.295Z,2.33
2023-03-17T11:29:41.154Z,2.50
2023-03-17T11:31:51.763Z,3.90
2023-03-17T11:34:00.221Z,2.27
2023-03-17T11:36:10.620Z,2.83
2023-03-17T11:38:25.881Z,5.50
2023-03-17T11:40:34.648Z,2.80
2023-03-17T11:42:46.555Z,2.77
2023-03-17T11:45:04.645Z,3.13
2023-03-17T11:47:18.192Z,3.10
2023-03-17T11:49:24.164Z,2.70
2023-03-17T11:51:31.857Z,6.20
2023-03-17T11:53:52.642Z,4.10
2023-03-17T11:56:01.487Z,3.53
2023-03-17T11:58:09.445Z,3.43
2023-03-17T12:00:21.152Z,2.40
2023-03-17T12:02:29.287Z,2.50
2023-03-17T12:04:37.893Z,2.50
2023-03-17T12:06:48.089Z,6.60
2023-03-17T12:08:57.631Z,3.47
2023-03-17T12:11:03.216Z,2.40
2023-03-17T12:13:10.235Z,3.30
2023-03-17T12:15:19.123Z,2.30
2023-03-17T12:17:29.613Z,2.90
2023-03-17T12:19:43.743Z,3.23
2023-03-17T12:21:50.277Z,3.40
2023-03-17T12:24:01.877Z,3.80
2023-03-17T12:26:07.467Z,2.60
2023-03-17T12:28:16.101Z,2.70
2023-03-17T12:30:29.096Z,3.33
2023-03-17T12:32:38.565Z,3.00
2023-03-17T12:34:47.564Z,2.63
2023-03-17T12:36:50.799Z,5.73
2023-03-17T12:39:01.711Z,2.90
2023-03-17T12:41:32.735Z,4.33
2023-03-17T12:43:47.818Z,3.63
2023-03-17T12:46:11.848Z,2.03
2023-03-17T12:48:46.165Z,4.03
2023-03-17T12:51:25.827Z,2.27
2023-03-17T12:53:30.994Z,2.80
2023-03-17T12:55:36.926Z,3.67
2023-03-17T12:57:44.235Z,2.00
2023-03-17T12:59:49.397Z,2.53
2023-03-17T13:01:58.368Z,2.77
2023-03-17T13:04:14.455Z,5.53
2023-03-17T13:06:20.818Z,2.03
2023-03-17T13:08:28.219Z,2.13
2023-03-17T13:10:41.910Z,3.87
2023-03-17T13:13:13.213Z,1.83
2023-03-17T13:15:28.194Z,2.60
2023-03-17T13:17:33.789Z,2.07
2023-03-17T13:19:47.808Z,2.13
2023-03-17T13:22:18.647Z,3.80
2023-03-17T13:24:40.151Z,3.17
2023-03-17T13:27:00.824Z,2.37
2023-03-17T13:29:23.469Z,1.77
2023-03-17T13:31:37.810Z,3.07
2023-03-17T13:33:45.819Z,4.63
2023-03-17T13:36:10.735Z,2.50
2023-03-17T13:38:38.310Z,4.97
2023-03-17T13:40:59.197Z,3.83
2023-03-17T13:43:16.184Z,6.53
2023-03-17T13:45:32.049Z,3.10
2023-03-17T13:47:38.148Z,2.20
2023-03-17T13:49:41.511Z,2.70
2023-03-17T13:51:56.531Z,1.83
2023-03-17T13:54:09.762Z,5.17
2023-03-17T13:56:19.611Z,3.80
2023-03-17T13:58:26.176Z,2.33
2023-03-17T14:00:29.949Z,1.87
2023-03-17T14:02:36.477Z,2.37
2023-03-17T14:04:46.492Z,5.33
2023-03-17T14:06:52.562Z,3.20
2023-03-17T14:09:00.270Z,3.20
2023-03-17T14:11:06.493Z,2.07
2023-03-17T14:13:19.436Z,2.13
2023-03-17T14:15:30.035Z,4.47
2023-03-17T14:17:36.036Z,4.73
2023-03-17T14:19:41.464Z,2.00
2023-03-17T14:21:44.345Z,3.27
2023-03-17T14:23:54.215Z,1.47
2023-03-17T14:25:57.985Z,2.90
2023-03-17T14:28:01.371Z,1.97
2023-03-17T14:30:10.711Z,2.70
2023-03-17T14:32:16.814Z,2.87
2023-03-17T14:34:22.513Z,4.63
2023-03-17T14:36:26.309Z,3.13
2023-03-17T14:38:31.199Z,2.33
2023-03-17T14:40:36.867Z,4.73
2023-03-17T14:42:39.658Z,2.27
2023-03-17T14:44:43.953Z,6.00
2023-03-17T14:46:46.703Z,3.50
2023-03-17T14:48:53.402Z,3.43
2023-03-17T14:51:04.853Z,2.57
2023-03-17T14:53:10.812Z,4.13
2023-03-17T14:55:15.935Z,2.60
2023-03-17T14:57:18.760Z,3.57
2023-03-17T14:59:31.997Z,5.43
2023-03-17T15:01:38.691Z,1.67
2023-03-17T15:03:52.705Z,1.30
2023-03-17T15:06:08.112Z,2.27
2023-03-17T15:08:45.944Z,3.63
2023-03-17T15:10:48.659Z,3.40
2023-03-17T15:13:00.910Z,2.00
2023-03-17T15:15:07.548Z,3.93
2023-03-17T15:17:19.177Z,3.20
2023-03-17T15:19:27.598Z,3.33
2023-03-17T15:21:38.799Z,3.13
2023-03-17T15:23:41.773Z,2.77
2023-03-17T15:25:46.251Z,2.10
2023-03-17T15:27:49.315Z,3.13
2023-03-17T15:29:52.144Z,2.27
2023-03-17T15:31:56.032Z,1.63
2023-03-17T15:33:59.729Z,2.63
2023-03-17T15:36:02.560Z,2.40
2023-03-17T15:38:09.777Z,1.90
2023-03-17T15:40:14.012Z,4.27
2023-03-17T15:42:19.817Z,3.17
2023-03-17T15:44:22.519Z,3.40
2023-03-17T15:46:30.845Z,1.73
2023-03-17T15:48:36.125Z,2.53
2023-03-17T15:50:39.180Z,6.13
2023-03-17T15:52:42.067Z,7.20
2023-03-17T15:54:46.195Z,2.47
2023-03-17T15:56:49.081Z,2.87
2023-03-17T15:58:52.430Z,2.03
2023-03-17T16:00:59.654Z,1.93
2023-03-17T16:03:09.379Z,1.87
2023-03-17T16:05:18.157Z,2.77
2023-03-17T16:07:21.245Z,3.67
2023-03-17T16:09:24.003Z,2.10
2023-03-17T16:11:31.546Z,1.80
2023-03-17T16:13:34.289Z,2.80
2023-03-17T16:15:39.206Z,2.37
2023-03-17T16:17:42.469Z,2.73
2023-03-17T16:19:45.593Z,2.17
2023-03-17T16:21:48.923Z,2.30
2023-03-17T16:23:51.738Z,2.20
2023-03-17T16:25:59.251Z,4.87
2023-03-17T16:28:17.977Z,2.73
2023-03-17T16:30:23.601Z,3.17
2023-03-17T16:32:26.317Z,1.83
2023-03-17T16:34:29.025Z,3.70
2023-03-17T16:36:31.762Z,2.47
2023-03-17T16:38:35.442Z,4.23
2023-03-17T16:40:39.287Z,8.30
2023-03-17T16:42:42.750Z,3.80
2023-03-17T16:44:47.023Z,2.97
2023-03-17T16:46:49.895Z,5.23
2023-03-17T16:48:52.797Z,1.43
2023-03-17T16:50:56.388Z,5.03
2023-03-17T16:52:59.345Z,2.47
2023-03-17T16:55:02.070Z,2.50
2023-03-17T16:57:07.603Z,2.90
2023-03-17T16:59:16.016Z,1.83
2023-03-17T17:01:22.361Z,1.70
2023-03-17T17:03:25.477Z,3.20
2023-03-17T17:05:31.191Z,2.60
2023-03-17T17:07:33.918Z,3.90
2023-03-17T17:09:36.621Z,5.93
2023-03-17T17:11:39.488Z,3.13
2023-03-17T17:13:42.863Z,2.33
2023-03-17T17:15:45.832Z,2.17
2023-03-17T17:17:52.840Z,5.23
2023-03-17T17:19:55.551Z,2.37
2023-03-17T17:21:58.238Z,6.03
2023-03-17T17:24:01.037Z,4.40
2023-03-17T17:26:03.774Z,4.27
2023-03-17T17:28:06.763Z,4.20
2023-03-17T17:30:12.227Z,3.03
2023-03-17T17:32:18.014Z,4.13
2023-03-17T17:34:22.072Z,4.90
2023-03-17T17:36:26.912Z,4.83
2023-03-17T17:38:30.182Z,3.60
2023-03-17T17:40:33.246Z,2.60
2023-03-17T17:42:36.726Z,3.70
2023-03-17T17:44:39.503Z,3.50
2023-03-17T17:46:42.452Z,6.83
2023-03-17T17:48:45.195Z,19.27
2023-03-17T17:50:49.815Z,12.23
2023-03-17T17:52:52.727Z,12.57
2023-03-17T17:54:55.742Z,8.70
2023-03-17T17:56:58.512Z,10.70
2023-03-17T17:59:01.947Z,9.03
2023-03-17T18:01:05.558Z,8.07
2023-03-17T18:03:08.655Z,8.43
2023-03-17T18:05:12.353Z,6.17
2023-03-17T18:07:16.388Z,8.97
2023-03-17T18:09:19.502Z,6.90
2023-03-17T18:11:22.245Z,11.03
2023-03-17T18:13:25.065Z,5.83
2023-03-17T18:15:28.845Z,5.20
2023-03-17T18:17:32.608Z,12.20
2023-03-17T18:19:35.490Z,10.07
2023-03-17T18:21:38.324Z,15.20
2023-03-17T18:23:46.815Z,24.80
2023-03-17T18:25:49.953Z,19.30
2023-03-17T18:27:52.651Z,17.67
2023-03-17T18:29:56.647Z,19.47
2023-03-17T18:31:59.785Z,28.23
2023-03-17T18:34:07.588Z,24.30
2023-03-17T18:36:11.648Z,32.43
2023-03-17T18:38:14.484Z,17.30
2023-03-17T18:40:20.623Z,15.10
2023-03-17T18:42:23.528Z,13.77
2023-03-17T18:44:26.423Z,14.57
2023-03-17T18:46:29.273Z,34.90
2023-03-17T18:48:32.122Z,99.17
2023-03-17T18:50:34.976Z,55.70
2023-03-17T18:52:40.376Z,53.03
2023-03-17T18:54:43.156Z,59.93
2023-03-17T18:56:47.714Z,43.43
2023-03-17T18:58:50.806Z,38.30
2023-03-17T19:00:54.260Z,91.97
2023-03-17T19:02:57.090Z,31.17
2023-03-17T19:04:59.950Z,28.87
2023-03-17T19:07:02.636Z,32.27
2023-03-17T19:09:05.336Z,29.50
2023-03-17T19:11:08.868Z,33.87
2023-03-17T19:13:13.336Z,16.90
2023-03-17T19:15:17.192Z,15.20
2023-03-17T19:17:19.917Z,15.53
2023-03-17T19:19:23.306Z,14.10
2023-03-17T19:21:27.290Z,12.93
2023-03-17T19:23:32.192Z,12.13
2023-03-17T19:25:36.740Z,11.47
2023-03-17T19:27:39.940Z,7.43
2023-03-17T19:29:44.470Z,8.93
2023-03-17T19:31:48.590Z,7.40
2023-03-17T19:33:51.815Z,8.27
2023-03-17T19:35:57.056Z,5.57
2023-03-17T19:37:59.895Z,7.53
2023-03-17T19:40:02.751Z,6.80
2023-03-17T19:42:05.876Z,4.73
2023-03-17T19:44:08.869Z,6.93
2023-03-17T19:46:13.230Z,6.23
2023-03-17T19:48:16.307Z,6.20
2023-03-17T19:50:19.159Z,4.97
2023-03-17T19:52:21.943Z,6.23
2023-03-17T19:54:24.862Z,7.70
2023-03-17T19:56:27.997Z,5.97
2023-03-17T19:58:30.699Z,8.47
2023-03-17T20:00:34.388Z,8.17
2023-03-17T20:02:38.565Z,10.70
2023-03-17T20:04:41.709Z,5.97
2023-03-17T20:06:44.577Z,8.57
2023-03-17T20:08:47.911Z,8.90
2023-03-17T20:10:54.253Z,4.63
2023-03-17T20:12:57.047Z,29.83
2023-03-17T20:15:00.212Z,9.17
2023-03-17T20:17:02.987Z,12.17
2023-03-17T20:19:07.460Z,13.57
2023-03-17T20:21:13.766Z,8.40
2023-03-17T20:23:18.070Z,7.13
2023-03-17T20:25:21.832Z,6.80
2023-03-17T20:27:24.630Z,15.87
2023-03-17T20:29:28.078Z,14.30
2023-03-17T20:31:32.076Z,13.93
2023-03-17T20:33:35.237Z,22.10
2023-03-17T20:35:39.463Z,29.47
2023-03-17T20:37:42.578Z,36.17
2023-03-17T20:39:45.417Z,31.77
2023-03-17T20:41:48.971Z,16.83
2023-03-17T20:43:51.982Z,17.77
2023-03-17T20:45:55.440Z,14.40
2023-03-17T20:47:58.162Z,8.93
2023-03-17T20:50:01.241Z,13.83
2023-03-17T20:52:06.242Z,11.73
2023-03-17T20:54:09.526Z,13.50
2023-03-17T20:56:16.313Z,18.83
2023-03-17T20:58:19.884Z,17.77
2023-03-17T21:00:23.099Z,11.13
2023-03-17T21:02:26.542Z,11.30
2023-03-17T21:04:29.265Z,12.13
2023-03-17T21:06:34.246Z,14.70
2023-03-17T21:08:39.032Z,18.77
2023-03-17T21:10:41.785Z,31.57
2023-03-17T21:12:45.092Z,38.97
2023-03-17T21:14:48.960Z,43.93
2023-03-17T21:16:51.767Z,19.80
2023-03-17T21:18:55.018Z,18.70
2023-03-17T21:20:58.240Z,11.03
2023-03-17T21:23:03.270Z,7.37
2023-03-17T21:25:08.839Z,8.27
2023-03-17T21:27:11.895Z,11.07
2023-03-17T21:29:14.628Z,15.63
2023-03-17T21:31:17.881Z,7.50
2023-03-17T21:33:21.408Z,6.43
2023-03-17T21:35:25.028Z,6.27
2023-03-17T21:37:27.973Z,7.20
2023-03-17T21:39:32.675Z,6.90
2023-03-17T21:41:38.553Z,7.13
2023-03-17T21:43:41.264Z,8.00
2023-03-17T21:45:44.316Z,7.67
2023-03-17T21:47:47.247Z,19.83
2023-03-17T21:49:49.965Z,13.23
2023-03-17T21:51:52.857Z,7.53
2023-03-17T21:53:55.625Z,5.37
2023-03-17T21:55:58.369Z,5.50
2023-03-17T21:58:02.705Z,6.03
2023-03-17T22:00:07.828Z,9.80
2023-03-17T22:02:12.378Z,26.57
2023-03-17T22:04:15.545Z,14.30
2023-03-17T22:06:19.418Z,8.60
2023-03-17T22:08:22.805Z,11.93
2023-03-17T22:10:27.135Z,10.93
2023-03-17T22:12:29.869Z,8.10
2023-03-17T22:14:35.569Z,7.07
2023-03-17T22:16:38.384Z,8.83
2023-03-17T22:18:41.166Z,9.47
2023-03-17T22:20:44.839Z,11.93
2023-03-17T22:22:47.559Z,14.73
2023-03-17T22:24:50.470Z,8.73
2023-03-17T22:26:53.206Z,8.13
2023-03-17T22:28:55.947Z,14.70
2023-03-17T22:31:00.902Z,8.20
2023-03-17T22:33:03.709Z,5.27
2023-03-17T22:35:07.289Z,4.10
2023-03-17T22:37:10.069Z,5.27
2023-03-17T22:39:12.812Z,3.93
2023-03-17T22:41:18.265Z,5.03
2023-03-17T22:43:20.992Z,4.57
2023-03-17T22:45:23.779Z,4.03
2023-03-17T22:47:28.298Z,6.43
2023-03-17T22:49:31.203Z,4.77
2023-03-17T22:51:34.515Z,3.10
2023-03-17T22:53:38.363Z,5.10
2023-03-17T22:55:41.132Z,5.30
2023-03-17T22:57:43.958Z,6.93
2023-03-17T22:59:46.751Z,6.10
2023-03-17T23:01:49.450Z,8.50
2023-03-17T23:03:54.362Z,8.53
2023-03-17T23:05:59.656Z,6.40
2023-03-17T23:08:02.696Z,6.93
2023-03-17T23:10:07.954Z,7.13
2023-03-17T23:12:11.671Z,5.67
2023-03-17T23:14:14.443Z,6.47
2023-03-17T23:16:18.105Z,7.10
2023-03-17T23:18:20.940Z,6.37
2023-03-17T23:20:25.351Z,40.17
2023-03-17T23:22:28.047Z,17.23
2023-03-17T23:24:30.761Z,14.70
2023-03-17T23:26:38.737Z,10.07
2023-03-17T23:28:41.904Z,7.50
2023-03-17T23:30:45.718Z,8.17
2023-03-17T23:32:49.197Z,6.67
2023-03-17T23:34:51.945Z,6.90
2023-03-17T23:36:56.008Z,5.87
2023-03-17T23:38:58.801Z,8.00
2023-03-17T23:41:02.027Z,9.77
2023-03-17T23:43:05.449Z,15.83
2023-03-17T23:45:09.543Z,41.27
2023-03-17T23:47:12.524Z,9.63
2023-03-17T23:49:15.648Z,6.47
2023-03-17T23:51:18.397Z,3.60
2023-03-17T23:53:24.297Z,8.13
2023-03-17T23:55:27.116Z,9.47
2023-03-17T23:57:30.418Z,4.23
2023-03-17T23:59:33.520Z,6.03
